Time;durP1;ratioP1;P1;durP2;ratioP2;P2;SDS_P1;SDS_P2;PMS_P1;PMS_P2;Temp;Humidity;BMP_temperature;BMP_pressure;BME280_temperature;BME280_humidity;BME280_pressure;Samples;Min_cycle;Max_cycle;Signal;HPM_P1;HPM_P2
2023/03/21 05:00:57;;;;;;;1.25;1.25;;;;;;;;;;5132709;23;20321;-66
2023/03/21 05:03:27;;;;;;;1.10;1.10;;;;;;;;;;4995631;28;20226;-65
2023/03/21 05:05:54;;;;;;;1.48;1.40;;;;;;;;;;4995949;28;20297;-66
2023/03/21 05:08:21;;;;;;;1.27;1.27;;;;;;;;;;4996057;28;20635;-66
2023/03/21 05:10:48;;;;;;;1.90;1.80;;;;;;;;;;4995955;28;20223;-66
2023/03/21 05:13:15;;;;;;;1.50;1.50;;;;;;;;;;4996219;28;20253;-66
2023/03/21 05:15:42;;;;;;;1.60;1.50;;;;;;;;;;4995878;28;20210;-66
2023/03/21 05:18:10;;;;;;;1.65;1.65;;;;;;;;;;4995795;28;20253;-66
2023/03/21 05:20:41;;;;;;;1.63;1.63;;;;;;;;;;4995638;28;20234;-67
2023/03/21 05:23:09;;;;;;;1.55;1.45;;;;;;;;;;4995305;28;20215;-67
2023/03/21 05:25:36;;;;;;;1.45;1.45;;;;;;;;;;4995195;28;20622;-68
2023/03/21 05:28:04;;;;;;;1.40;1.40;;;;;;;;;;4995383;28;20228;-68
2023/03/21 05:30:31;;;;;;;1.60;1.50;;;;;;;;;;4995255;28;20633;-68
2023/03/21 05:32:58;;;;;;;1.13;1.13;;;;;;;;;;4995330;28;20209;-68
2023/03/21 05:35:27;;;;;;;1.30;1.30;;;;;;;;;;4995290;28;20619;-68
2023/03/21 05:37:54;;;;;;;1.42;1.42;;;;;;;;;;4995606;28;20213;-66
2023/03/21 05:40:21;;;;;;;1.33;1.33;;;;;;;;;;4995183;28;20230;-66
2023/03/21 05:42:48;;;;;;;1.40;1.40;;;;;;;;;;4995152;28;20223;-69
2023/03/21 05:45:15;;;;;;;1.48;1.38;;;;;;;;;;4995183;28;20202;-67
2023/03/21 05:47:42;;;;;;;1.25;1.20;;;;;;;;;;4995509;28;20216;-67
2023/03/21 05:50:12;;;;;;;1.60;1.60;;;;;;;;;;4995305;28;20219;-66
2023/03/21 05:52:40;;;;;;;1.55;1.48;;;;;;;;;;4995758;28;20239;-66
2023/03/21 05:55:07;;;;;;;1.92;1.83;;;;;;;;;;4995050;28;20210;-67
2023/03/21 05:57:38;;;;;;;1.77;1.75;;;;;;;;;;4995213;28;20190;-68
2023/03/21 06:00:05;;;;;;;2.30;2.20;;;;;;;;;;4995026;28;20318;-67
2023/03/21 06:02:32;;;;;;;1.67;1.67;;;;;;;;;;4994580;28;20223;-64
2023/03/21 06:05:00;;;;;;;1.52;1.50;;;;;;;;;;4994928;28;20213;-64
2023/03/21 06:07:27;;;;;;;1.50;1.50;;;;;;;;;;4994801;28;20689;-64
2023/03/21 06:09:55;;;;;;;1.63;1.63;;;;;;;;;;4995431;28;20222;-64
2023/03/21 15:50:10;;;;;;;2.17;2.08;;;15.20;92.90;;;;;;5037964;23;20326;-66
2023/03/21 15:52:37;;;;;;;2.40;2.20;;;15.20;93.50;;;;;;4979166;28;20222;-65
2023/03/21 15:55:24;;;;;;;2.03;1.92;;;15.20;93.20;;;;;;4982359;28;20260;-65
2023/03/21 15:57:52;;;;;;;2.15;2.05;;;15.10;93.50;;;;;;4979731;28;20203;-66
2023/03/21 16:00:24;;;;;;;2.38;2.17;;;15.00;94.50;;;;;;4979133;28;20226;-66
2023/03/21 16:02:58;;;;;;;2.50;2.40;;;14.90;94.00;;;;;;4981051;28;20222;-67
2023/03/21 16:05:28;;;;;;;2.10;2.00;;;14.80;94.20;;;;;;4980474;28;20183;-67
2023/03/21 16:07:59;;;;;;;1.70;1.60;;;14.80;96.00;;;;;;4980902;28;20544;-66
2023/03/21 16:10:30;;;;;;;1.65;1.65;;;14.80;96.30;;;;;;4981626;28;20628;-66
2023/03/21 16:12:57;;;;;;;1.85;1.80;;;14.70;96.00;;;;;;4981520;28;20191;-67
2023/03/21 16:15:26;;;;;;;2.10;1.98;;;14.70;96.50;;;;;;4981226;28;20230;-66
2023/03/21 16:17:56;;;;;;;1.33;1.33;;;14.60;96.80;;;;;;4981689;28;20298;-66
2023/03/21 16:20:27;;;;;;;1.95;1.85;;;14.50;98.00;;;;;;4980552;28;20630;-66
2023/03/21 16:22:54;;;;;;;1.75;1.65;;;14.40;98.70;;;;;;4979176;28;20251;-66
2023/03/21 16:25:21;;;;;;;1.40;1.40;;;14.30;99.70;;;;;;4977101;28;20199;-65
2023/03/21 16:27:49;;;;;;;1.38;1.38;;;14.20;99.90;;;;;;4976897;28;20203;-66
2023/03/21 16:30:18;;;;;;;1.42;1.42;;;14.10;99.90;;;;;;4977076;28;20239;-66
2023/03/21 16:32:45;;;;;;;1.15;1.15;;;14.00;99.90;;;;;;4976725;28;20575;-66
2023/03/21 16:35:12;;;;;;;1.52;1.52;;;14.00;99.90;;;;;;4976990;28;20230;-66
2023/03/21 16:37:40;;;;;;;1.50;1.20;;;13.90;99.90;;;;;;4976955;28;20215;-65
2023/03/21 16:40:24;;;;;;;1.27;1.27;;;13.80;99.90;;;;;;4976824;28;20226;-65
2023/03/21 16:42:51;;;;;;;1.95;1.85;;;13.70;99.90;;;;;;4976415;28;20775;-65
2023/03/21 16:45:18;;;;;;;2.83;2.63;;;13.60;99.90;;;;;;4976860;28;20199;-65
2023/03/21 16:47:46;;;;;;;2.70;2.50;;;13.50;99.90;;;;;;4977558;28;20546;-65
2023/03/21 16:50:21;;;;;;;2.03;1.92;;;13.40;99.90;;;;;;4976712;28;20204;-65
2023/03/21 16:52:49;;;;;;;3.45;1.75;;;13.30;99.90;;;;;;4976790;28;20246;-65
2023/03/21 16:55:16;;;;;;;1.90;1.80;;;13.20;99.90;;;;;;4976524;28;20199;-65
2023/03/21 16:57:44;;;;;;;1.60;1.50;;;13.10;99.90;;;;;;4976610;28;20204;-65
2023/03/21 17:00:15;;;;;;;1.35;1.35;;;13.00;99.90;;;;;;4976514;28;20227;-65
2023/03/21 17:02:42;;;;;;;1.23;1.23;;;13.00;99.90;;;;;;4976717;28;20219;-65
2023/03/21 17:05:10;;;;;;;1.38;1.27;;;12.90;99.90;;;;;;4977122;28;20227;-65
2023/03/21 17:07:37;;;;;;;1.40;1.40;;;12.80;99.90;;;;;;4976299;28;20207;-65
2023/03/21 17:10:15;;;;;;;1.20;1.20;;;12.70;99.90;;;;;;4976367;28;20274;-65
2023/03/21 17:12:41;;;;;;;1.90;1.20;;;12.60;99.90;;;;;;4975993;28;20582;-65
2023/03/21 17:15:09;;;;;;;1.48;1.38;;;12.60;99.90;;;;;;4977029;28;20207;-66
2023/03/21 17:17:36;;;;;;;1.13;1.13;;;12.50;99.90;;;;;;4976270;28;20222;-66
2023/03/21 17:20:19;;;;;;;1.17;1.17;;;12.50;99.90;;;;;;4976188;28;20258;-66
2023/03/21 17:22:46;;;;;;;1.17;1.17;;;12.40;99.90;;;;;;4976512;28;20282;-65
2023/03/21 17:25:15;;;;;;;1.20;1.20;;;12.30;99.90;;;;;;4976431;28;20223;-65
2023/03/21 17:27:43;;;;;;;1.77;1.67;;;12.20;99.90;;;;;;4976248;28;20203;-65
2023/03/21 17:30:22;;;;;;;1.40;1.30;;;12.10;99.90;;;;;;4976099;28;20231;-64
2023/03/21 17:32:50;;;;;;;1.30;1.30;;;12.00;99.90;;;;;;4975640;28;20184;-65
2023/03/21 17:35:17;;;;;;;2.33;1.30;;;12.00;99.90;;;;;;4975996;28;20247;-65
2023/03/21 17:37:49;;;;;;;2.50;1.65;;;11.90;99.90;;;;;;4975684;28;20551;-65
2023/03/21 17:40:20;;;;;;;1.45;1.35;;;11.80;99.90;;;;;;4976280;28;20188;-65
2023/03/21 17:42:47;;;;;;;1.45;1.40;;;11.70;99.90;;;;;;4976515;28;20187;-66
2023/03/21 17:45:14;;;;;;;3.25;1.85;;;11.60;99.90;;;;;;4975904;28;20230;-66
2023/03/21 17:47:40;;;;;;;1.98;1.73;;;11.60;99.90;;;;;;4975708;28;20199;-70
2023/03/21 17:50:14;;;;;;;3.08;1.48;;;11.50;99.90;;;;;;4975394;28;20594;-66
2023/03/21 17:52:41;;;;;;;2.17;1.70;;;11.40;99.90;;;;;;4975404;28;20219;-67
2023/03/21 17:55:08;;;;;;;1.30;1.20;;;11.40;99.90;;;;;;4975665;28;20203;-67
2023/03/21 17:57:36;;;;;;;1.38;1.38;;;11.30;99.90;;;;;;4975736;28;20207;-66
2023/03/21 18:00:11;;;;;;;1.13;1.02;;;11.30;99.90;;;;;;4975510;28;20223;-66
2023/03/21 18:02:38;;;;;;;1.65;1.48;;;11.30;99.90;;;;;;4975534;28;20187;-66
2023/03/21 18:05:05;;;;;;;1.23;1.23;;;11.20;99.90;;;;;;4975381;28;20226;-66
2023/03/21 18:07:33;;;;;;;1.00;1.00;;;11.10;99.90;;;;;;4975460;28;20199;-66
2023/03/21 18:10:00;;;;;;;0.85;0.85;;;11.00;99.90;;;;;;4975407;28;20227;-66
2023/03/21 18:12:26;;;;;;;1.00;1.00;;;11.00;99.90;;;;;;4975703;28;20199;-66
2023/03/21 18:14:54;;;;;;;1.00;1.00;;;10.90;99.90;;;;;;4975739;28;20206;-66
2023/03/21 18:17:21;;;;;;;1.20;1.20;;;10.80;99.90;;;;;;4975486;28;20218;-66
2023/03/21 18:19:48;;;;;;;1.20;1.20;;;10.80;99.90;;;;;;4975366;28;20230;-69
2023/03/21 18:22:16;;;;;;;1.13;1.13;;;10.70;99.90;;;;;;4975216;28;20234;-66
2023/03/21 18:24:43;;;;;;;1.27;1.20;;;10.60;99.90;;;;;;4975099;28;20306;-66
2023/03/21 18:27:11;;;;;;;1.10;1.10;;;10.60;99.90;;;;;;4975172;28;20192;-66
2023/03/21 18:29:37;;;;;;;1.10;1.10;;;10.50;99.90;;;;;;4975181;28;20616;-66
2023/03/21 18:32:06;;;;;;;0.95;0.95;;;10.50;99.90;;;;;;4975092;28;20203;-65
2023/03/21 18:34:32;;;;;;;1.33;1.33;;;10.40;99.90;;;;;;4975016;28;20200;-65
2023/03/21 18:36:59;;;;;;;1.05;1.00;;;10.40;99.90;;;;;;4975045;28;20230;-65
2023/03/21 18:39:26;;;;;;;1.50;0.98;;;10.40;99.90;;;;;;4974754;28;20733;-65
2023/03/21 18:41:58;;;;;;;1.48;1.10;;;10.30;99.90;;;;;;4974831;28;20230;-66
2023/03/21 18:44:25;;;;;;;1.88;1.00;;;10.30;99.90;;;;;;4973991;28;20266;-65
2023/03/21 18:46:52;;;;;;;0.98;0.98;;;10.20;99.90;;;;;;4974811;28;20239;-65
2023/03/21 18:49:20;;;;;;;1.10;1.10;;;10.20;99.90;;;;;;4974407;28;20660;-66
2023/03/21 18:51:47;;;;;;;2.05;1.25;;;10.10;99.90;;;;;;4974407;28;20263;-65
2023/03/21 18:54:13;;;;;;;1.00;1.00;;;10.10;99.90;;;;;;4974929;28;20199;-66
2023/03/21 18:56:42;;;;;;;1.08;1.08;;;10.00;99.90;;;;;;4974890;28;20188;-65
2023/03/21 18:59:08;;;;;;;1.15;1.15;;;10.00;99.90;;;;;;4974736;28;20254;-66
2023/03/21 19:01:35;;;;;;;0.85;0.85;;;10.00;99.90;;;;;;4974838;28;20213;-65
2023/03/21 19:04:02;;;;;;;0.82;0.82;;;10.00;99.90;;;;;;4974612;28;20219;-65
2023/03/21 19:06:30;;;;;;;0.80;0.80;;;9.90;99.90;;;;;;4974604;28;20207;-66
2023/03/21 19:08:57;;;;;;;0.80;0.80;;;9.90;99.90;;;;;;4974889;28;20318;-65
2023/03/21 19:11:24;;;;;;;0.80;0.80;;;9.90;99.90;;;;;;4974633;28;20200;-65
2023/03/21 19:13:51;;;;;;;0.82;0.82;;;9.80;99.90;;;;;;4974717;28;20207;-65
2023/03/21 19:16:19;;;;;;;1.15;1.15;;;9.80;99.90;;;;;;4974446;28;20660;-65
2023/03/21 19:18:46;;;;;;;1.83;1.73;;;9.80;99.90;;;;;;4974785;28;20272;-65
2023/03/21 19:21:12;;;;;;;1.77;1.67;;;9.80;99.90;;;;;;4974746;28;20294;-65
2023/03/21 19:23:40;;;;;;;1.50;1.42;;;9.80;99.90;;;;;;4974396;28;20613;-66
2023/03/21 19:26:07;;;;;;;1.30;1.30;;;9.70;99.90;;;;;;4974644;28;20227;-65
2023/03/21 19:28:34;;;;;;;1.33;1.23;;;9.70;99.90;;;;;;4974511;28;20227;-66
2023/03/21 19:31:05;;;;;;;1.20;1.20;;;9.70;99.90;;;;;;4974554;28;20209;-65
2023/03/21 19:33:31;;;;;;;1.13;1.13;;;9.70;99.90;;;;;;4974495;28;20200;-65
2023/03/21 19:35:58;;;;;;;1.38;1.38;;;9.70;99.90;;;;;;4974460;28;20195;-65
2023/03/21 19:38:25;;;;;;;1.20;1.20;;;9.70;99.90;;;;;;4974551;28;20229;-65
2023/03/21 19:40:58;;;;;;;1.38;1.27;;;9.60;99.90;;;;;;4974274;28;20613;-66
2023/03/21 19:43:25;;;;;;;1.20;1.20;;;9.60;99.90;;;;;;4974525;28;20191;-66
2023/03/21 19:45:52;;;;;;;1.15;1.15;;;9.60;99.90;;;;;;4974236;28;20227;-66
2023/03/21 19:48:19;;;;;;;1.30;1.30;;;9.60;99.90;;;;;;4974512;28;20223;-65
2023/03/21 19:50:47;;;;;;;1.00;1.00;;;9.60;99.90;;;;;;4974204;28;20211;-65
2023/03/21 19:53:14;;;;;;;0.90;0.90;;;9.60;99.90;;;;;;4974481;28;20282;-66
2023/03/21 19:55:41;;;;;;;0.75;0.75;;;9.60;99.90;;;;;;4977201;28;20214;-65
2023/03/21 19:58:09;;;;;;;0.93;0.93;;;9.60;99.90;;;;;;4977575;28;20781;-65
2023/03/21 20:00:37;;;;;;;1.73;1.05;;;9.50;99.90;;;;;;4977982;28;20299;-66
2023/03/21 20:03:07;;;;;;;1.20;1.10;;;9.50;99.90;;;;;;4977863;28;20203;-65
2023/03/21 20:05:34;;;;;;;0.90;0.90;;;9.50;99.90;;;;;;4977604;28;20602;-65
2023/03/21 20:08:00;;;;;;;0.85;0.85;;;9.50;99.90;;;;;;4977697;28;20335;-66
2023/03/21 20:10:28;;;;;;;0.95;0.95;;;9.40;99.90;;;;;;4977770;28;20211;-66
2023/03/21 20:12:55;;;;;;;0.80;0.80;;;9.40;99.90;;;;;;4977528;28;20286;-64
2023/03/21 20:15:23;;;;;;;0.95;0.95;;;9.40;99.90;;;;;;4977212;28;20601;-65
2023/03/21 20:17:50;;;;;;;0.80;0.80;;;9.30;99.90;;;;;;4977406;28;20214;-65
2023/03/21 20:20:18;;;;;;;1.65;1.10;;;9.20;99.90;;;;;;4977391;28;20237;-66
2023/03/21 20:22:47;;;;;;;1.20;1.10;;;9.20;99.90;;;;;;4977417;28;20207;-66
2023/03/21 20:25:14;;;;;;;1.20;1.20;;;9.20;99.90;;;;;;4977219;28;20247;-66
2023/03/21 20:27:42;;;;;;;1.50;1.40;;;9.20;99.90;;;;;;4977252;28;20211;-65
2023/03/21 20:30:13;;;;;;;1.65;1.55;;;9.20;99.90;;;;;;4977150;28;20227;-64
2023/03/21 20:32:42;;;;;;;1.23;1.23;;;9.10;99.90;;;;;;4977271;28;20282;-65
2023/03/21 20:35:12;;;;;;;1.00;1.00;;;9.10;99.90;;;;;;4976920;28;20685;-66
2023/03/21 20:37:40;;;;;;;1.20;1.20;;;9.00;99.90;;;;;;4976988;28;20207;-66
2023/03/21 20:40:11;;;;;;;1.30;0.90;;;9.00;99.90;;;;;;4977890;28;20241;-66
2023/03/21 20:42:38;;;;;;;1.20;1.10;;;9.00;99.90;;;;;;4977433;28;20335;-66
2023/03/21 20:45:07;;;;;;;1.95;1.20;;;8.90;99.90;;;;;;4976885;28;20230;-66
2023/03/21 20:47:34;;;;;;;1.05;1.05;;;8.90;99.90;;;;;;4976537;28;20573;-66
2023/03/21 20:50:02;;;;;;;1.00;1.00;;;8.90;99.90;;;;;;4976756;28;20595;-65
2023/03/21 20:52:29;;;;;;;0.90;0.90;;;8.90;99.90;;;;;;4976534;28;20222;-65
2023/03/21 20:54:57;;;;;;;1.05;0.88;;;9.00;99.90;;;;;;4976344;28;20670;-65
2023/03/21 20:57:25;;;;;;;1.25;1.25;;;9.00;99.90;;;;;;4976999;28;20203;-65
2023/03/21 20:59:53;;;;;;;1.77;1.60;;;8.90;99.90;;;;;;4976863;28;20226;-65
2023/03/21 21:02:19;;;;;;;1.50;1.40;;;8.90;99.90;;;;;;4976839;28;20207;-65
2023/03/21 21:04:48;;;;;;;1.42;1.33;;;8.90;99.90;;;;;;4976524;28;20702;-64
2023/03/21 21:07:17;;;;;;;1.58;1.30;;;8.90;99.90;;;;;;4975901;28;20255;-64
2023/03/21 21:09:45;;;;;;;1.48;1.30;;;8.90;99.90;;;;;;4976769;28;20230;-64
